sensor_id;sensor_type;location;lat;lon;timestamp;P1;durP1;ratioP1;P2;durP2;ratioP2
72127;SDS011;60000;51.030;7.024;2024-02-15T00:02:13;4.67;;;1.90;;
72127;SDS011;60000;51.030;7.024;2024-02-15T00:04:38;7.07;;;2.00;;
72127;SDS011;60000;51.030;7.024;2024-02-15T00:07:03;4.30;;;1.80;;
72127;SDS011;60000;51.030;7.024;2024-02-15T00:09:29;6.63;;;1.63;;
72127;SDS011;60000;51.030;7.024;2024-02-15T00:11:54;6.10;;;1.80;;
72127;SDS011;60000;51.030;7.024;2024-02-15T00:14:21;6.90;;;1.88;;
72127;SDS011;60000;51.030;7.024;2024-02-15T00:16:46;5.20;;;2.00;;
72127;SDS011;60000;51.030;7.024;2024-02-15T00:19:12;8.93;;;2.20;;
72127;SDS011;60000;51.030;7.024;2024-02-15T00:21:42;4.10;;;1.70;;
72127;SDS011;60000;51.030;7.024;2024-02-15T00:24:08;6.70;;;2.15;;
72127;SDS011;60000;51.030;7.024;2024-02-15T00:26:33;5.43;;;2.00;;
72127;SDS011;60000;51.030;7.024;2024-02-15T00:28:59;4.70;;;2.10;;
72127;SDS011;60000;51.030;7.024;2024-02-15T00:31:25;4.00;;;1.75;;
72127;SDS011;60000;51.030;7.024;2024-02-15T00:33:51;5.10;;;1.87;;
72127;SDS011;60000;51.030;7.024;2024-02-15T00:36:16;5.47;;;2.10;;
72127;SDS011;60000;51.030;7.024;2024-02-15T00:38:42;4.75;;;1.90;;
72127;SDS011;60000;51.030;7.024;2024-02-15T00:41:08;5.53;;;2.30;;
72127;SDS011;60000;51.030;7.024;2024-02-15T00:43:36;5.57;;;1.77;;
72127;SDS011;60000;51.030;7.024;2024-02-15T00:46:01;6.15;;;2.10;;
72127;SDS011;60000;51.030;7.024;2024-02-15T00:48:27;6.10;;;1.70;;
72127;SDS011;60000;51.030;7.024;2024-02-15T00:50:54;5.30;;;1.92;;
72127;SDS011;60000;51.030;7.024;2024-02-15T00:53:20;4.90;;;2.10;;
72127;SDS011;60000;51.030;7.024;2024-02-15T00:55:45;6.10;;;2.30;;
72127;SDS011;60000;51.030;7.024;2024-02-15T00:58:11;4.73;;;1.90;;
72127;SDS011;60000;51.030;7.024;2024-02-15T01:00:37;4.65;;;1.73;;
72127;SDS011;60000;51.030;7.024;2024-02-15T01:03:03;8.50;;;2.13;;
72127;SDS011;60000;51.030;7.024;2024-02-15T01:05:29;7.20;;;2.07;;
72127;SDS011;60000;51.030;7.024;2024-02-15T01:07:55;6.03;;;2.10;;
72127;SDS011;60000;51.030;7.024;2024-02-15T01:10:21;5.13;;;1.85;;
72127;SDS011;60000;51.030;7.024;2024-02-15T01:12:47;5.13;;;1.70;;
72127;SDS011;60000;51.030;7.024;2024-02-15T01:15:13;5.82;;;1.65;;
72127;SDS011;60000;51.030;7.024;2024-02-15T01:17:39;5.63;;;2.03;;
72127;SDS011;60000;51.030;7.024;2024-02-15T01:20:05;5.17;;;1.70;;
72127;SDS011;60000;51.030;7.024;2024-02-15T01:22:31;5.57;;;2.10;;
72127;SDS011;60000;51.030;7.024;2024-02-15T01:24:57;8.27;;;2.40;;
72127;SDS011;60000;51.030;7.024;2024-02-15T01:27:23;5.82;;;2.03;;
72127;SDS011;60000;51.030;7.024;2024-02-15T01:29:48;5.43;;;1.83;;
72127;SDS011;60000;51.030;7.024;2024-02-15T01:32:13;4.87;;;2.00;;
72127;SDS011;60000;51.030;7.024;2024-02-15T01:34:39;4.93;;;1.90;;
72127;SDS011;60000;51.030;7.024;2024-02-15T01:37:05;4.93;;;2.20;;
72127;SDS011;60000;51.030;7.024;2024-02-15T01:39:30;5.03;;;1.90;;
72127;SDS011;60000;51.030;7.024;2024-02-15T01:41:55;5.30;;;2.00;;
72127;SDS011;60000;51.030;7.024;2024-02-15T01:44:21;6.07;;;1.90;;
72127;SDS011;60000;51.030;7.024;2024-02-15T01:46:49;4.80;;;1.90;;
72127;SDS011;60000;51.030;7.024;2024-02-15T01:49:17;5.82;;;1.95;;
72127;SDS011;60000;51.030;7.024;2024-02-15T01:51:42;5.83;;;2.20;;
72127;SDS011;60000;51.030;7.024;2024-02-15T01:54:10;6.00;;;2.10;;
72127;SDS011;60000;51.030;7.024;2024-02-15T01:56:37;5.07;;;1.70;;
72127;SDS011;60000;51.030;7.024;2024-02-15T01:59:03;6.13;;;1.90;;
72127;SDS011;60000;51.030;7.024;2024-02-15T02:01:30;7.47;;;1.98;;
72127;SDS011;60000;51.030;7.024;2024-02-15T02:03:57;5.80;;;2.15;;
72127;SDS011;60000;51.030;7.024;2024-02-15T02:06:23;5.45;;;2.38;;
72127;SDS011;60000;51.030;7.024;2024-02-15T02:08:49;5.82;;;2.05;;
72127;SDS011;60000;51.030;7.024;2024-02-15T02:11:14;5.33;;;1.63;;
72127;SDS011;60000;51.030;7.024;2024-02-15T02:13:40;4.53;;;1.77;;
72127;SDS011;60000;51.030;7.024;2024-02-15T02:16:23;7.53;;;2.40;;
72127;SDS011;60000;51.030;7.024;2024-02-15T02:18:49;7.28;;;1.90;;
72127;SDS011;60000;51.030;7.024;2024-02-15T02:21:15;7.50;;;2.00;;
72127;SDS011;60000;51.030;7.024;2024-02-15T02:23:40;7.90;;;2.10;;
72127;SDS011;60000;51.030;7.024;2024-02-15T02:26:06;6.97;;;2.07;;
72127;SDS011;60000;51.030;7.024;2024-02-15T02:28:34;5.63;;;1.80;;
72127;SDS011;60000;51.030;7.024;2024-02-15T02:31:01;6.88;;;2.10;;
72127;SDS011;60000;51.030;7.024;2024-02-15T02:33:26;5.70;;;2.00;;
72127;SDS011;60000;51.030;7.024;2024-02-15T02:35:53;5.18;;;2.10;;
72127;SDS011;60000;51.030;7.024;2024-02-15T02:38:19;5.55;;;2.10;;
72127;SDS011;60000;51.030;7.024;2024-02-15T02:40:45;7.17;;;1.97;;
72127;SDS011;60000;51.030;7.024;2024-02-15T02:43:10;7.17;;;2.13;;
72127;SDS011;60000;51.030;7.024;2024-02-15T02:45:36;5.03;;;1.70;;
72127;SDS011;60000;51.030;7.024;2024-02-15T02:48:01;6.25;;;1.95;;
72127;SDS011;60000;51.030;7.024;2024-02-15T02:50:27;6.13;;;1.97;;
72127;SDS011;60000;51.030;7.024;2024-02-15T02:52:52;3.83;;;1.60;;
72127;SDS011;60000;51.030;7.024;2024-02-15T02:55:18;4.55;;;1.58;;
72127;SDS011;60000;51.030;7.024;2024-02-15T02:57:43;9.43;;;2.45;;
72127;SDS011;60000;51.030;7.024;2024-02-15T03:00:13;5.23;;;1.80;;
72127;SDS011;60000;51.030;7.024;2024-02-15T03:02:44;7.35;;;2.10;;
72127;SDS011;60000;51.030;7.024;2024-02-15T03:05:11;9.23;;;2.10;;
72127;SDS011;60000;51.030;7.024;2024-02-15T03:07:37;7.00;;;2.00;;
72127;SDS011;60000;51.030;7.024;2024-02-15T03:10:05;8.10;;;1.90;;
72127;SDS011;60000;51.030;7.024;2024-02-15T03:12:33;7.90;;;2.05;;
72127;SDS011;60000;51.030;7.024;2024-02-15T03:15:00;4.75;;;1.70;;
72127;SDS011;60000;51.030;7.024;2024-02-15T03:17:26;5.15;;;1.77;;
72127;SDS011;60000;51.030;7.024;2024-02-15T03:19:52;4.73;;;1.50;;
72127;SDS011;60000;51.030;7.024;2024-02-15T03:22:17;5.17;;;1.87;;
72127;SDS011;60000;51.030;7.024;2024-02-15T03:24:43;6.70;;;2.00;;
72127;SDS011;60000;51.030;7.024;2024-02-15T03:27:08;4.57;;;1.67;;
72127;SDS011;60000;51.030;7.024;2024-02-15T03:29:37;6.03;;;1.95;;
72127;SDS011;60000;51.030;7.024;2024-02-15T03:32:03;7.33;;;2.30;;
72127;SDS011;60000;51.030;7.024;2024-02-15T03:34:29;7.55;;;2.00;;
72127;SDS011;60000;51.030;7.024;2024-02-15T03:36:56;5.88;;;1.98;;
72127;SDS011;60000;51.030;7.024;2024-02-15T03:39:21;4.57;;;1.80;;
72127;SDS011;60000;51.030;7.024;2024-02-15T03:41:48;4.30;;;1.77;;
72127;SDS011;60000;51.030;7.024;2024-02-15T03:44:14;4.68;;;1.77;;
72127;SDS011;60000;51.030;7.024;2024-02-15T03:46:39;4.77;;;1.73;;
72127;SDS011;60000;51.030;7.024;2024-02-15T03:49:05;9.03;;;1.90;;
72127;SDS011;60000;51.030;7.024;2024-02-15T03:51:31;6.38;;;1.90;;
72127;SDS011;60000;51.030;7.024;2024-02-15T03:53:57;6.97;;;2.05;;
72127;SDS011;60000;51.030;7.024;2024-02-15T03:56:23;4.22;;;1.85;;
72127;SDS011;60000;51.030;7.024;2024-02-15T03:58:48;6.23;;;1.77;;
72127;SDS011;60000;51.030;7.024;2024-02-15T04:01:15;6.97;;;2.25;;
72127;SDS011;60000;51.030;7.024;2024-02-15T04:03:41;6.20;;;2.33;;
72127;SDS011;60000;51.030;7.024;2024-02-15T04:06:06;6.47;;;2.03;;
72127;SDS011;60000;51.030;7.024;2024-02-15T04:08:31;6.47;;;2.33;;
72127;SDS011;60000;51.030;7.024;2024-02-15T04:10:58;6.18;;;2.00;;
72127;SDS011;60000;51.030;7.024;2024-02-15T04:13:23;5.70;;;2.17;;
72127;SDS011;60000;51.030;7.024;2024-02-15T04:15:49;8.38;;;2.08;;
72127;SDS011;60000;51.030;7.024;2024-02-15T04:18:15;7.50;;;2.22;;
72127;SDS011;60000;51.030;7.024;2024-02-15T04:20:41;7.50;;;2.10;;
72127;SDS011;60000;51.030;7.024;2024-02-15T04:23:13;7.88;;;2.30;;
72127;SDS011;60000;51.030;7.024;2024-02-15T04:25:38;5.88;;;2.40;;
72127;SDS011;60000;51.030;7.024;2024-02-15T04:28:04;9.47;;;2.40;;
72127;SDS011;60000;51.030;7.024;2024-02-15T04:30:30;8.77;;;2.13;;
72127;SDS011;60000;51.030;7.024;2024-02-15T04:32:56;6.88;;;2.47;;
72127;SDS011;60000;51.030;7.024;2024-02-15T04:35:21;5.20;;;2.00;;
72127;SDS011;60000;51.030;7.024;2024-02-15T04:37:47;6.57;;;2.42;;
72127;SDS011;60000;51.030;7.024;2024-02-15T04:40:14;7.07;;;2.00;;
72127;SDS011;60000;51.030;7.024;2024-02-15T04:42:39;5.95;;;2.05;;
72127;SDS011;60000;51.030;7.024;2024-02-15T04:45:06;6.25;;;2.38;;
72127;SDS011;60000;51.030;7.024;2024-02-15T04:47:36;6.03;;;2.28;;
72127;SDS011;60000;51.030;7.024;2024-02-15T04:50:02;6.00;;;2.00;;
72127;SDS011;60000;51.030;7.024;2024-02-15T04:52:27;7.90;;;1.98;;
72127;SDS011;60000;51.030;7.024;2024-02-15T04:54:53;6.57;;;2.22;;
72127;SDS011;60000;51.030;7.024;2024-02-15T04:57:23;6.05;;;2.22;;
72127;SDS011;60000;51.030;7.024;2024-02-15T04:59:48;6.23;;;2.60;;
72127;SDS011;60000;51.030;7.024;2024-02-15T05:02:14;5.53;;;1.90;;
72127;SDS011;60000;51.030;7.024;2024-02-15T05:04:40;4.43;;;1.50;;
72127;SDS011;60000;51.030;7.024;2024-02-15T05:07:07;6.57;;;2.15;;
72127;SDS011;60000;51.030;7.024;2024-02-15T05:09:33;8.40;;;2.05;;
72127;SDS011;60000;51.030;7.024;2024-02-15T05:11:59;5.57;;;2.10;;
72127;SDS011;60000;51.030;7.024;2024-02-15T05:14:27;5.47;;;1.77;;
72127;SDS011;60000;51.030;7.024;2024-02-15T05:16:55;5.22;;;1.85;;
72127;SDS011;60000;51.030;7.024;2024-02-15T05:19:21;5.50;;;1.90;;
72127;SDS011;60000;51.030;7.024;2024-02-15T05:21:46;5.87;;;2.23;;
72127;SDS011;60000;51.030;7.024;2024-02-15T05:24:13;6.47;;;1.97;;
72127;SDS011;60000;51.030;7.024;2024-02-15T05:26:39;6.38;;;1.90;;
72127;SDS011;60000;51.030;7.024;2024-02-15T05:29:07;6.20;;;1.92;;
72127;SDS011;60000;51.030;7.024;2024-02-15T05:31:32;5.70;;;1.90;;
72127;SDS011;60000;51.030;7.024;2024-02-15T05:34:02;6.28;;;2.30;;
72127;SDS011;60000;51.030;7.024;2024-02-15T05:36:28;6.60;;;2.60;;
72127;SDS011;60000;51.030;7.024;2024-02-15T05:38:55;5.60;;;2.30;;
72127;SDS011;60000;51.030;7.024;2024-02-15T05:41:20;6.27;;;2.20;;
72127;SDS011;60000;51.030;7.024;2024-02-15T05:43:46;8.45;;;2.20;;
72127;SDS011;60000;51.030;7.024;2024-02-15T05:46:17;8.50;;;2.22;;
72127;SDS011;60000;51.030;7.024;2024-02-15T05:48:42;4.50;;;1.73;;
72127;SDS011;60000;51.030;7.024;2024-02-15T05:51:07;6.87;;;1.93;;
72127;SDS011;60000;51.030;7.024;2024-02-15T05:53:33;6.43;;;2.00;;
72127;SDS011;60000;51.030;7.024;2024-02-15T05:56:03;7.47;;;2.03;;
72127;SDS011;60000;51.030;7.024;2024-02-15T05:58:30;6.20;;;2.17;;
72127;SDS011;60000;51.030;7.024;2024-02-15T06:00:56;7.70;;;1.87;;
72127;SDS011;60000;51.030;7.024;2024-02-15T06:03:26;5.72;;;2.17;;
72127;SDS011;60000;51.030;7.024;2024-02-15T06:05:56;6.95;;;2.22;;
72127;SDS011;60000;51.030;7.024;2024-02-15T06:08:24;11.43;;;2.00;;
72127;SDS011;60000;51.030;7.024;2024-02-15T06:10:49;11.02;;;2.25;;
72127;SDS011;60000;51.030;7.024;2024-02-15T06:13:15;7.53;;;2.30;;
72127;SDS011;60000;51.030;7.024;2024-02-15T06:15:40;10.00;;;2.20;;
72127;SDS011;60000;51.030;7.024;2024-02-15T06:18:06;8.13;;;1.90;;
72127;SDS011;60000;51.030;7.024;2024-02-15T06:20:35;7.13;;;2.00;;
72127;SDS011;60000;51.030;7.024;2024-02-15T06:23:00;7.57;;;1.97;;
72127;SDS011;60000;51.030;7.024;2024-02-15T06:25:28;5.45;;;2.00;;
72127;SDS011;60000;51.030;7.024;2024-02-15T06:27:53;10.90;;;2.60;;
72127;SDS011;60000;51.030;7.024;2024-02-15T06:30:26;6.32;;;1.95;;
72127;SDS011;60000;51.030;7.024;2024-02-15T06:33:10;7.60;;;2.03;;
72127;SDS011;60000;51.030;7.024;2024-02-15T06:35:54;6.60;;;1.95;;
72127;SDS011;60000;51.030;7.024;2024-02-15T06:38:38;5.55;;;1.95;;
72127;SDS011;60000;51.030;7.024;2024-02-15T06:41:22;7.28;;;2.20;;
72127;SDS011;60000;51.030;7.024;2024-02-15T06:43:47;10.75;;;2.30;;
72127;SDS011;60000;51.030;7.024;2024-02-15T06:46:13;7.80;;;2.10;;
72127;SDS011;60000;51.030;7.024;2024-02-15T06:48:41;7.60;;;2.03;;
72127;SDS011;60000;51.030;7.024;2024-02-15T06:51:09;9.30;;;2.63;;
72127;SDS011;60000;51.030;7.024;2024-02-15T06:53:39;7.30;;;2.40;;
72127;SDS011;60000;51.030;7.024;2024-02-15T06:56:04;9.83;;;2.57;;
72127;SDS011;60000;51.030;7.024;2024-02-15T06:58:29;6.72;;;2.60;;
72127;SDS011;60000;51.030;7.024;2024-02-15T07:00:55;11.23;;;2.70;;
72127;SDS011;60000;51.030;7.024;2024-02-15T07:03:20;9.03;;;2.60;;
72127;SDS011;60000;51.030;7.024;2024-02-15T07:05:47;8.15;;;2.72;;
72127;SDS011;60000;51.030;7.024;2024-02-15T07:08:13;6.65;;;2.30;;
72127;SDS011;60000;51.030;7.024;2024-02-15T07:10:39;7.83;;;2.43;;
72127;SDS011;60000;51.030;7.024;2024-02-15T07:13:04;7.50;;;2.63;;
72127;SDS011;60000;51.030;7.024;2024-02-15T07:15:31;7.30;;;2.33;;
72127;SDS011;60000;51.030;7.024;2024-02-15T07:17:58;8.48;;;2.25;;
72127;SDS011;60000;51.030;7.024;2024-02-15T07:20:24;8.50;;;2.27;;
72127;SDS011;60000;51.030;7.024;2024-02-15T07:22:50;6.43;;;2.42;;
72127;SDS011;60000;51.030;7.024;2024-02-15T07:25:16;7.47;;;1.90;;
72127;SDS011;60000;51.030;7.024;2024-02-15T07:27:41;8.30;;;2.20;;
72127;SDS011;60000;51.030;7.024;2024-02-15T07:30:07;5.93;;;2.10;;
72127;SDS011;60000;51.030;7.024;2024-02-15T07:32:33;10.30;;;2.53;;
72127;SDS011;60000;51.030;7.024;2024-02-15T07:35:00;8.48;;;2.50;;
72127;SDS011;60000;51.030;7.024;2024-02-15T07:37:26;7.50;;;2.60;;
72127;SDS011;60000;51.030;7.024;2024-02-15T07:39:52;11.03;;;2.83;;
72127;SDS011;60000;51.030;7.024;2024-02-15T07:42:17;10.15;;;2.65;;
72127;SDS011;60000;51.030;7.024;2024-02-15T07:44:43;6.87;;;2.40;;
72127;SDS011;60000;51.030;7.024;2024-02-15T07:47:08;7.97;;;2.27;;
72127;SDS011;60000;51.030;7.024;2024-02-15T07:49:35;8.27;;;2.40;;
72127;SDS011;60000;51.030;7.024;2024-02-15T07:52:01;10.30;;;2.60;;
72127;SDS011;60000;51.030;7.024;2024-02-15T07:54:29;8.20;;;2.60;;
72127;SDS011;60000;51.030;7.024;2024-02-15T07:56:55;6.90;;;2.20;;
72127;SDS011;60000;51.030;7.024;2024-02-15T07:59:21;9.85;;;2.20;;
72127;SDS011;60000;51.030;7.024;2024-02-15T08:01:46;7.60;;;2.47;;
72127;SDS011;60000;51.030;7.024;2024-02-15T08:04:14;6.63;;;2.42;;
72127;SDS011;60000;51.030;7.024;2024-02-15T08:06:40;6.57;;;2.00;;
72127;SDS011;60000;51.030;7.024;2024-02-15T08:09:06;6.47;;;2.70;;
72127;SDS011;60000;51.030;7.024;2024-02-15T08:11:32;7.60;;;2.10;;
72127;SDS011;60000;51.030;7.024;2024-02-15T08:13:57;7.60;;;2.37;;
72127;SDS011;60000;51.030;7.024;2024-02-15T08:16:24;8.90;;;2.47;;
72127;SDS011;60000;51.030;7.024;2024-02-15T08:18:53;8.27;;;2.40;;
72127;SDS011;60000;51.030;7.024;2024-02-15T08:21:29;7.60;;;2.30;;
72127;SDS011;60000;51.030;7.024;2024-02-15T08:23:57;5.70;;;2.40;;
72127;SDS011;60000;51.030;7.024;2024-02-15T08:26:30;7.72;;;2.30;;
72127;SDS011;60000;51.030;7.024;2024-02-15T08:29:01;7.50;;;2.63;;
72127;SDS011;60000;51.030;7.024;2024-02-15T08:31:28;5.85;;;2.22;;
72127;SDS011;60000;51.030;7.024;2024-02-15T08:33:53;8.30;;;2.30;;
72127;SDS011;60000;51.030;7.024;2024-02-15T08:36:19;11.33;;;2.67;;
72127;SDS011;60000;51.030;7.024;2024-02-15T08:38:46;9.48;;;2.40;;
72127;SDS011;60000;51.030;7.024;2024-02-15T08:41:12;16.23;;;2.55;;
72127;SDS011;60000;51.030;7.024;2024-02-15T08:43:37;6.83;;;2.10;;
72127;SDS011;60000;51.030;7.024;2024-02-15T08:46:05;7.05;;;2.75;;
72127;SDS011;60000;51.030;7.024;2024-02-15T08:48:31;6.47;;;2.30;;
72127;SDS011;60000;51.030;7.024;2024-02-15T08:50:57;7.03;;;2.10;;
72127;SDS011;60000;51.030;7.024;2024-02-15T08:53:22;7.57;;;2.00;;
72127;SDS011;60000;51.030;7.024;2024-02-15T08:55:49;7.32;;;2.33;;
72127;SDS011;60000;51.030;7.024;2024-02-15T08:58:15;6.40;;;2.20;;
72127;SDS011;60000;51.030;7.024;2024-02-15T09:00:40;7.60;;;2.20;;
72127;SDS011;60000;51.030;7.024;2024-02-15T09:03:10;8.95;;;2.03;;
72127;SDS011;60000;51.030;7.024;2024-02-15T09:05:36;7.03;;;2.05;;
72127;SDS011;60000;51.030;7.024;2024-02-15T09:08:02;8.53;;;1.97;;
72127;SDS011;60000;51.030;7.024;2024-02-15T09:10:29;10.38;;;2.38;;
72127;SDS011;60000;51.030;7.024;2024-02-15T09:12:55;9.13;;;1.93;;
72127;SDS011;60000;51.030;7.024;2024-02-15T09:15:21;8.30;;;2.60;;
72127;SDS011;60000;51.030;7.024;2024-02-15T09:17:47;6.63;;;1.80;;
72127;SDS011;60000;51.030;7.024;2024-02-15T09:20:13;7.23;;;1.90;;
72127;SDS011;60000;51.030;7.024;2024-02-15T09:22:42;10.77;;;2.40;;
72127;SDS011;60000;51.030;7.024;2024-02-15T09:25:11;6.00;;;1.88;;
72127;SDS011;60000;51.030;7.024;2024-02-15T09:27:38;7.57;;;1.97;;
72127;SDS011;60000;51.030;7.024;2024-02-15T09:30:04;6.93;;;1.90;;
72127;SDS011;60000;51.030;7.024;2024-02-15T09:32:32;7.15;;;1.77;;
72127;SDS011;60000;51.030;7.024;2024-02-15T09:34:59;9.77;;;2.17;;
72127;SDS011;60000;51.030;7.024;2024-02-15T09:37:25;9.57;;;2.40;;
72127;SDS011;60000;51.030;7.024;2024-02-15T09:39:53;6.47;;;1.85;;
72127;SDS011;60000;51.030;7.024;2024-02-15T09:42:18;7.85;;;2.30;;
72127;SDS011;60000;51.030;7.024;2024-02-15T09:44:43;7.90;;;2.43;;
72127;SDS011;60000;51.030;7.024;2024-02-15T09:47:12;10.82;;;2.30;;
72127;SDS011;60000;51.030;7.024;2024-02-15T09:49:41;7.95;;;2.15;;
72127;SDS011;60000;51.030;7.024;2024-02-15T09:52:07;10.20;;;2.10;;
72127;SDS011;60000;51.030;7.024;2024-02-15T09:54:40;8.57;;;1.98;;
72127;SDS011;60000;51.030;7.024;2024-02-15T09:57:08;9.80;;;2.20;;
72127;SDS011;60000;51.030;7.024;2024-02-15T09:59:35;8.30;;;2.03;;
72127;SDS011;60000;51.030;7.024;2024-02-15T10:02:01;6.85;;;2.17;;
72127;SDS011;60000;51.030;7.024;2024-02-15T10:04:27;7.82;;;2.10;;
72127;SDS011;60000;51.030;7.024;2024-02-15T10:06:53;7.53;;;2.30;;
72127;SDS011;60000;51.030;7.024;2024-02-15T10:12:00;7.50;;;1.90;;
72127;SDS011;60000;51.030;7.024;2024-02-15T10:14:26;11.27;;;2.47;;
72127;SDS011;60000;51.030;7.024;2024-02-15T10:16:53;5.85;;;1.90;;
72127;SDS011;60000;51.030;7.024;2024-02-15T10:19:21;7.80;;;1.80;;
72127;SDS011;60000;51.030;7.024;2024-02-15T10:21:53;8.13;;;1.70;;
72127;SDS011;60000;51.030;7.024;2024-02-15T10:24:23;6.60;;;1.88;;
72127;SDS011;60000;51.030;7.024;2024-02-15T10:27:00;7.65;;;1.60;;
72127;SDS011;60000;51.030;7.024;2024-02-15T10:29:29;7.47;;;1.58;;
72127;SDS011;60000;51.030;7.024;2024-02-15T10:31:56;6.57;;;1.63;;
72127;SDS011;60000;51.030;7.024;2024-02-15T10:34:24;5.55;;;1.55;;
72127;SDS011;60000;51.030;7.024;2024-02-15T10:36:52;9.48;;;1.75;;
72127;SDS011;60000;51.030;7.024;2024-02-15T10:39:19;6.83;;;1.87;;
72127;SDS011;60000;51.030;7.024;2024-02-15T10:41:53;7.95;;;2.30;;
72127;SDS011;60000;51.030;7.024;2024-02-15T10:44:23;8.80;;;1.90;;
72127;SDS011;60000;51.030;7.024;2024-02-15T10:46:50;7.25;;;1.80;;
72127;SDS011;60000;51.030;7.024;2024-02-15T10:49:21;7.85;;;1.92;;
72127;SDS011;60000;51.030;7.024;2024-02-15T10:51:50;7.63;;;1.92;;
72127;SDS011;60000;51.030;7.024;2024-02-15T10:54:35;7.20;;;1.83;;
72127;SDS011;60000;51.030;7.024;2024-02-15T10:57:04;7.78;;;1.60;;
72127;SDS011;60000;51.030;7.024;2024-02-15T10:59:37;5.78;;;1.98;;
72127;SDS011;60000;51.030;7.024;2024-02-15T11:04:55;6.50;;;1.80;;
72127;SDS011;60000;51.030;7.024;2024-02-15T11:07:28;7.03;;;2.08;;
72127;SDS011;60000;51.030;7.024;2024-02-15T11:09:55;7.07;;;1.92;;
72127;SDS011;60000;51.030;7.024;2024-02-15T11:12:24;6.15;;;1.70;;
72127;SDS011;60000;51.030;7.024;2024-02-15T11:14:51;8.23;;;1.67;;
72127;SDS011;60000;51.030;7.024;2024-02-15T11:20:02;7.78;;;2.25;;
72127;SDS011;60000;51.030;7.024;2024-02-15T11:22:33;6.75;;;1.77;;
72127;SDS011;60000;51.030;7.024;2024-02-15T11:25:01;5.53;;;1.63;;
72127;SDS011;60000;51.030;7.024;2024-02-15T11:27:33;7.72;;;1.70;;
72127;SDS011;60000;51.030;7.024;2024-02-15T11:29:59;7.43;;;1.88;;
72127;SDS011;60000;51.030;7.024;2024-02-15T11:32:35;5.28;;;1.40;;
72127;SDS011;60000;51.030;7.024;2024-02-15T11:35:07;8.80;;;1.80;;
72127;SDS011;60000;51.030;7.024;2024-02-15T11:37:56;4.93;;;1.48;;
72127;SDS011;60000;51.030;7.024;2024-02-15T11:40:29;6.03;;;1.80;;
72127;SDS011;60000;51.030;7.024;2024-02-15T11:46:13;8.70;;;1.50;;
72127;SDS011;60000;51.030;7.024;2024-02-15T11:48:43;5.22;;;1.55;;
72127;SDS011;60000;51.030;7.024;2024-02-15T11:51:09;6.50;;;1.70;;
72127;SDS011;60000;51.030;7.024;2024-02-15T11:53:36;5.63;;;1.40;;
72127;SDS011;60000;51.030;7.024;2024-02-15T11:56:02;4.88;;;1.55;;
72127;SDS011;60000;51.030;7.024;2024-02-15T11:58:30;5.00;;;1.55;;
72127;SDS011;60000;51.030;7.024;2024-02-15T12:01:11;5.05;;;1.40;;
72127;SDS011;60000;51.030;7.024;2024-02-15T12:03:55;5.18;;;1.50;;
72127;SDS011;60000;51.030;7.024;2024-02-15T12:06:38;5.63;;;1.43;;
72127;SDS011;60000;51.030;7.024;2024-02-15T12:09:22;5.30;;;1.70;;
72127;SDS011;60000;51.030;7.024;2024-02-15T12:12:06;5.38;;;1.63;;
72127;SDS011;60000;51.030;7.024;2024-02-15T12:14:59;4.57;;;1.50;;
72127;SDS011;60000;51.030;7.024;2024-02-15T12:17:47;5.35;;;1.40;;
72127;SDS011;60000;51.030;7.024;2024-02-15T12:20:31;7.63;;;1.87;;
72127;SDS011;60000;51.030;7.024;2024-02-15T12:22:57;11.45;;;1.90;;
72127;SDS011;60000;51.030;7.024;2024-02-15T12:25:25;6.20;;;1.63;;
72127;SDS011;60000;51.030;7.024;2024-02-15T12:27:54;6.40;;;1.58;;
72127;SDS011;60000;51.030;7.024;2024-02-15T12:30:20;5.30;;;1.47;;
72127;SDS011;60000;51.030;7.024;2024-02-15T12:32:49;6.80;;;1.60;;
72127;SDS011;60000;51.030;7.024;2024-02-15T12:35:21;5.47;;;1.55;;
72127;SDS011;60000;51.030;7.024;2024-02-15T12:38:03;5.35;;;1.58;;
72127;SDS011;60000;51.030;7.024;2024-02-15T12:40:36;4.60;;;1.42;;
72127;SDS011;60000;51.030;7.024;2024-02-15T12:43:06;7.53;;;1.60;;
72127;SDS011;60000;51.030;7.024;2024-02-15T12:45:36;5.60;;;2.10;;
72127;SDS011;60000;51.030;7.024;2024-02-15T12:48:05;7.80;;;1.83;;
72127;SDS011;60000;51.030;7.024;2024-02-15T12:50:32;5.10;;;1.55;;
72127;SDS011;60000;51.030;7.024;2024-02-15T12:52:59;4.97;;;1.70;;
72127;SDS011;60000;51.030;7.024;2024-02-15T12:55:28;5.20;;;1.53;;
72127;SDS011;60000;51.030;7.024;2024-02-15T12:57:56;9.10;;;2.03;;
72127;SDS011;60000;51.030;7.024;2024-02-15T13:02:53;5.65;;;1.70;;
72127;SDS011;60000;51.030;7.024;2024-02-15T13:05:19;7.15;;;1.80;;
72127;SDS011;60000;51.030;7.024;2024-02-15T13:07:48;5.35;;;1.85;;
72127;SDS011;60000;51.030;7.024;2024-02-15T13:10:14;4.97;;;1.60;;
72127;SDS011;60000;51.030;7.024;2024-02-15T13:12:43;6.13;;;1.50;;
72127;SDS011;60000;51.030;7.024;2024-02-15T13:15:10;7.63;;;1.60;;
72127;SDS011;60000;51.030;7.024;2024-02-15T13:17:39;5.68;;;1.65;;
72127;SDS011;60000;51.030;7.024;2024-02-15T13:20:05;4.68;;;1.48;;
72127;SDS011;60000;51.030;7.024;2024-02-15T13:22:38;5.03;;;1.50;;
72127;SDS011;60000;51.030;7.024;2024-02-15T13:25:04;5.20;;;1.55;;
72127;SDS011;60000;51.030;7.024;2024-02-15T13:27:32;6.68;;;2.00;;
72127;SDS011;60000;51.030;7.024;2024-02-15T13:29:58;6.43;;;1.70;;
72127;SDS011;60000;51.030;7.024;2024-02-15T13:32:23;6.10;;;1.80;;
72127;SDS011;60000;51.030;7.024;2024-02-15T13:34:48;8.35;;;1.58;;
72127;SDS011;60000;51.030;7.024;2024-02-15T13:37:19;7.40;;;1.70;;
72127;SDS011;60000;51.030;7.024;2024-02-15T13:39:48;4.97;;;1.40;;
72127;SDS011;60000;51.030;7.024;2024-02-15T13:42:14;4.70;;;1.60;;
72127;SDS011;60000;51.030;7.024;2024-02-15T13:44:41;7.05;;;1.80;;
72127;SDS011;60000;51.030;7.024;2024-02-15T13:47:10;5.28;;;1.70;;
72127;SDS011;60000;51.030;7.024;2024-02-15T13:49:37;5.82;;;1.73;;
72127;SDS011;60000;51.030;7.024;2024-02-15T13:52:05;5.82;;;1.70;;
72127;SDS011;60000;51.030;7.024;2024-02-15T13:54:31;5.07;;;1.70;;
72127;SDS011;60000;51.030;7.024;2024-02-15T13:56:57;5.93;;;1.60;;
72127;SDS011;60000;51.030;7.024;2024-02-15T13:59:23;5.33;;;1.40;;
72127;SDS011;60000;51.030;7.024;2024-02-15T14:01:51;6.75;;;1.42;;
72127;SDS011;60000;51.030;7.024;2024-02-15T14:04:17;5.53;;;1.70;;
72127;SDS011;60000;51.030;7.024;2024-02-15T14:06:42;6.00;;;1.67;;
72127;SDS011;60000;51.030;7.024;2024-02-15T14:09:09;8.35;;;2.13;;
72127;SDS011;60000;51.030;7.024;2024-02-15T14:11:36;5.22;;;1.30;;
72127;SDS011;60000;51.030;7.024;2024-02-15T14:14:02;6.97;;;1.58;;
72127;SDS011;60000;51.030;7.024;2024-02-15T14:16:28;4.97;;;1.50;;
72127;SDS011;60000;51.030;7.024;2024-02-15T14:18:54;4.25;;;1.38;;
72127;SDS011;60000;51.030;7.024;2024-02-15T14:21:20;6.20;;;1.40;;
72127;SDS011;60000;51.030;7.024;2024-02-15T14:23:45;5.17;;;1.50;;
72127;SDS011;60000;51.030;7.024;2024-02-15T14:26:10;5.00;;;1.40;;
72127;SDS011;60000;51.030;7.024;2024-02-15T14:28:36;7.43;;;1.65;;
72127;SDS011;60000;51.030;7.024;2024-02-15T14:31:04;6.33;;;1.30;;
72127;SDS011;60000;51.030;7.024;2024-02-15T14:33:48;5.40;;;1.45;;
72127;SDS011;60000;51.030;7.024;2024-02-15T14:36:15;6.97;;;1.48;;
72127;SDS011;60000;51.030;7.024;2024-02-15T14:38:42;6.18;;;1.42;;
72127;SDS011;60000;51.030;7.024;2024-02-15T14:41:07;3.73;;;1.27;;
72127;SDS011;60000;51.030;7.024;2024-02-15T14:43:34;5.05;;;1.45;;
72127;SDS011;60000;51.030;7.024;2024-02-15T14:45:59;5.97;;;1.60;;
72127;SDS011;60000;51.030;7.024;2024-02-15T14:48:26;11.30;;;1.63;;
72127;SDS011;60000;51.030;7.024;2024-02-15T14:50:52;5.00;;;1.60;;
72127;SDS011;60000;51.030;7.024;2024-02-15T14:53:18;4.57;;;1.30;;
72127;SDS011;60000;51.030;7.024;2024-02-15T14:55:43;5.20;;;1.30;;
72127;SDS011;60000;51.030;7.024;2024-02-15T14:58:11;4.50;;;1.42;;
72127;SDS011;60000;51.030;7.024;2024-02-15T15:00:38;5.32;;;1.50;;
72127;SDS011;60000;51.030;7.024;2024-02-15T15:03:04;5.22;;;1.30;;
72127;SDS011;60000;51.030;7.024;2024-02-15T15:05:30;5.33;;;1.40;;